Terminal Aerodrome Forecast
Issued by NWS

Home | Current Version | Previous Version | Text Only | Print | Product List | Glossary On
Versions: 1 2 3 4 5 6 7 8 9 10 11 12
606
FTUS45 KRIW 071133
TAFLND
TAF
KLND 071133Z 0712/0812 24007KT P6SM SCT250
     FM071700 VRB05KT P6SM SCT250=

USA.gov is the U.S. government's official web portal to all federal, state and local government web resources and services.